Time;durP1;ratioP1;P1;durP2;ratioP2;P2;SDS_P1;SDS_P2;PMS_P1;PMS_P2;Temp;Humidity;BMP_temperature;BMP_pressure;BME280_temperature;BME280_humidity;BME280_pressure;Samples;Min_cycle;Max_cycle;Signal;HPM_P1;HPM_P2
2022/09/29 00:00:50;;;;;;;;;;;9.40;99.90;;;;;;5053613;28;20298;-66
2022/09/29 00:03:16;;;;;;;5.93;3.00;;;9.40;99.90;;;;;;5053295;28;19957;-66
2022/09/29 00:05:47;;;;;;;9.20;4.05;;;9.40;99.90;;;;;;5053307;28;20013;-66
2022/09/29 00:08:12;;;;;;;5.15;3.60;;;9.40;99.90;;;;;;5053138;28;20382;-66
2022/09/29 00:10:40;;;;;;;7.20;3.40;;;9.50;99.90;;;;;;5053636;28;20047;-66
2022/09/29 00:13:06;;;;;;;7.05;3.50;;;9.60;99.90;;;;;;5053136;28;20032;-66
2022/09/29 00:15:32;;;;;;;7.90;4.43;;;9.50;99.90;;;;;;5053188;28;20021;-66
2022/09/29 00:17:57;;;;;;;7.67;3.77;;;9.60;99.90;;;;;;5053334;28;20052;-65
2022/09/29 00:20:23;;;;;;;7.20;3.90;;;9.60;99.90;;;;;;5052993;28;20040;-65
2022/09/29 00:22:50;;;;;;;5.13;2.93;;;9.60;99.90;;;;;;5035328;28;20032;-65
2022/09/29 00:25:15;;;;;;;7.80;3.35;;;9.50;99.90;;;;;;5053563;28;20293;-65
2022/09/29 00:27:41;;;;;;;8.97;3.43;;;9.50;99.90;;;;;;5053234;28;20024;-65
2022/09/29 00:30:06;;;;;;;10.77;3.43;;;9.50;99.90;;;;;;5035724;28;20079;-66
2022/09/29 00:32:32;;;;;;;9.02;3.30;;;9.60;99.90;;;;;;5035024;28;20112;-66
2022/09/29 00:34:58;;;;;;;9.93;3.93;;;9.60;99.90;;;;;;5052840;28;20482;-66
2022/09/29 00:37:23;;;;;;;6.60;3.37;;;9.60;99.90;;;;;;5053247;28;20025;-66
2022/09/29 00:39:49;;;;;;;9.13;3.73;;;9.50;99.90;;;;;;5034950;28;20075;-66
2022/09/29 00:42:18;;;;;;;10.50;3.90;;;9.40;99.90;;;;;;5052932;28;20040;-66
2022/09/29 00:45:11;;;;;;;6.18;3.75;;;9.30;99.90;;;;;;5054681;28;20036;-66
2022/09/29 00:47:41;;;;;;;5.43;3.20;;;9.30;99.90;;;;;;5059651;28;20044;-66
2022/09/29 00:50:34;;;;;;;6.35;3.33;;;9.40;99.90;;;;;;5041483;28;20024;-66
2022/09/29 00:53:02;;;;;;;8.48;3.65;;;9.50;99.90;;;;;;5059649;28;20017;-66
2022/09/29 00:55:35;;;;;;;9.73;3.80;;;9.50;99.90;;;;;;5041537;28;20025;-66
2022/09/29 00:58:10;;;;;;;6.38;3.63;;;9.50;99.90;;;;;;5041573;28;20029;-67
2022/09/29 01:00:36;;;;;;;4.32;2.90;;;9.40;99.90;;;;;;5059472;28;20076;-67
2022/09/29 01:03:11;;;;;;;5.03;2.95;;;9.50;99.90;;;;;;5042063;28;20025;-67
2022/09/29 01:05:42;;;;;;;6.72;3.20;;;9.50;99.90;;;;;;5059795;28;20029;-67
2022/09/29 01:08:21;;;;;;;5.38;3.08;;;9.70;99.90;;;;;;5041549;28;20033;-66
2022/09/29 01:10:49;;;;;;;6.53;3.60;;;9.80;99.90;;;;;;5041415;28;20083;-66
2022/09/29 01:13:14;;;;;;;10.23;4.07;;;9.80;99.90;;;;;;5059479;28;20493;-65
2022/09/29 01:15:40;;;;;;;10.80;3.93;;;9.80;99.90;;;;;;5059690;28;20033;-65
2022/09/29 01:18:06;;;;;;;6.50;3.83;;;9.70;99.90;;;;;;5059367;28;20121;-65
2022/09/29 01:20:37;;;;;;;8.65;3.83;;;9.70;99.90;;;;;;5059794;28;20056;-65
2022/09/29 01:23:20;;;;;;;7.82;4.05;;;9.90;99.90;;;;;;5059419;28;20035;-65
2022/09/29 01:26:00;;;;;;;7.50;3.75;;;9.70;99.90;;;;;;5059767;28;20373;-65
2022/09/29 01:28:53;;;;;;;8.38;3.60;;;9.90;99.90;;;;;;5059329;28;20100;-65
2022/09/29 01:31:21;;;;;;;7.75;4.22;;;9.90;99.90;;;;;;5059805;28;20036;-65
2022/09/29 01:34:01;;;;;;;8.93;3.97;;;9.80;99.90;;;;;;5042229;28;20023;-65
2022/09/29 01:36:33;;;;;;;6.50;4.13;;;10.00;99.90;;;;;;5059471;28;20016;-65
2022/09/29 01:39:28;;;;;;;8.32;4.28;;;10.00;99.90;;;;;;5059338;28;20497;-65
2022/09/29 01:42:07;;;;;;;7.65;3.40;;;10.00;99.90;;;;;;5059288;28;20052;-65
2022/09/29 01:44:39;;;;;;;6.57;3.85;;;10.10;99.90;;;;;;5059104;28;20021;-65
2022/09/29 01:47:12;;;;;;;8.82;3.90;;;10.00;99.90;;;;;;5041249;28;20028;-65
2022/09/29 01:49:43;;;;;;;7.50;3.72;;;9.90;99.90;;;;;;5059245;28;20417;-65
2022/09/29 01:52:16;;;;;;;7.10;3.75;;;9.90;99.90;;;;;;5058958;28;20478;-65
2022/09/29 01:54:57;;;;;;;6.57;3.47;;;9.90;99.90;;;;;;5058974;28;20470;-66
2022/09/29 01:57:34;;;;;;;6.28;3.85;;;9.90;99.90;;;;;;5055597;28;20021;-65
2022/09/29 02:00:10;;;;;;;9.32;4.43;;;9.80;99.90;;;;;;5056120;28;20477;-65
2022/09/29 02:02:41;;;;;;;8.75;4.15;;;9.70;99.90;;;;;;5055913;28;20082;-65
2022/09/29 02:05:15;;;;;;;8.88;4.40;;;9.70;99.90;;;;;;5056081;28;20048;-65
2022/09/29 02:07:44;;;;;;;7.78;4.63;;;9.70;99.90;;;;;;5055846;28;20363;-65
2022/09/29 02:10:22;;;;;;;7.47;3.78;;;9.70;99.90;;;;;;5037533;28;20481;-66
2022/09/29 02:12:51;;;;;;;7.40;4.03;;;9.70;99.90;;;;;;5037370;28;20536;-66
2022/09/29 02:15:28;;;;;;;10.65;4.25;;;9.70;99.90;;;;;;5055435;28;20033;-66
2022/09/29 02:17:58;;;;;;;7.70;3.78;;;9.70;99.90;;;;;;5055445;28;20096;-66
2022/09/29 02:20:24;;;;;;;7.78;4.05;;;9.70;99.90;;;;;;5055156;28;20104;-66
2022/09/29 02:22:49;;;;;;;7.75;3.92;;;9.60;99.90;;;;;;5037498;28;20440;-66
2022/09/29 02:25:17;;;;;;;8.20;4.47;;;9.60;99.90;;;;;;5037409;28;20029;-66
2022/09/29 02:27:44;;;;;;;10.20;4.00;;;9.70;99.90;;;;;;5056494;28;20033;-66
2022/09/29 02:30:11;;;;;;;6.38;4.30;;;9.50;99.90;;;;;;5055522;28;20048;-66
2022/09/29 02:32:36;;;;;;;6.53;4.22;;;9.40;99.90;;;;;;5055472;28;20470;-66
2022/09/29 02:35:05;;;;;;;9.50;3.70;;;9.40;99.90;;;;;;5055200;28;20029;-66
2022/09/29 02:37:38;;;;;;;4.95;3.28;;;9.40;99.90;;;;;;5037230;28;20362;-66
2022/09/29 02:40:09;;;;;;;11.20;3.67;;;9.30;99.90;;;;;;5055125;28;20021;-66
2022/09/29 02:43:13;;;;;;;8.43;3.85;;;9.30;99.90;;;;;;5055462;28;20103;-66
2022/09/29 02:46:09;;;;;;;7.82;3.65;;;9.40;99.90;;;;;;5058101;28;20025;-66
2022/09/29 02:49:12;;;;;;;8.00;4.03;;;9.40;99.90;;;;;;5055841;28;20013;-66
2022/09/29 02:51:49;;;;;;;6.10;3.80;;;9.40;99.90;;;;;;5054950;28;20484;-66
2022/09/29 02:54:48;;;;;;;5.28;3.42;;;9.40;99.90;;;;;;5054975;28;20036;-66
2022/09/29 02:57:25;;;;;;;6.93;3.50;;;9.40;99.90;;;;;;5028787;28;20178;-66
2022/09/29 03:00:10;;;;;;;5.82;3.28;;;9.50;99.90;;;;;;5054896;28;20072;-66
2022/09/29 03:02:40;;;;;;;6.40;3.78;;;9.30;99.90;;;;;;5055023;28;20090;-66
2022/09/29 03:05:15;;;;;;;5.97;3.33;;;9.40;99.90;;;;;;5037009;28;20108;-66
2022/09/29 03:07:41;;;;;;;6.00;3.83;;;9.30;99.90;;;;;;5054323;28;20108;-66
2022/09/29 03:10:08;;;;;;;8.82;3.13;;;9.20;99.90;;;;;;5054544;28;20445;-66
2022/09/29 03:12:34;;;;;;;7.93;3.50;;;9.30;99.90;;;;;;5036396;28;20370;-66
2022/09/29 03:15:00;;;;;;;6.90;3.88;;;9.20;99.90;;;;;;5054279;28;20492;-66
2022/09/29 03:17:26;;;;;;;4.23;2.97;;;9.30;99.90;;;;;;5054224;28;20033;-66
2022/09/29 03:19:51;;;;;;;5.17;3.40;;;9.30;99.90;;;;;;5054147;28;20025;-66
2022/09/29 03:22:18;;;;;;;5.77;3.10;;;9.20;99.90;;;;;;5054100;28;20381;-66
2022/09/29 03:24:43;;;;;;;5.75;2.65;;;9.20;99.90;;;;;;5054377;28;20377;-66
2022/09/29 03:27:09;;;;;;;5.47;2.97;;;9.20;99.90;;;;;;5054256;28;20109;-66
2022/09/29 03:29:35;;;;;;;6.07;2.97;;;9.20;99.90;;;;;;5035995;28;20131;-66
2022/09/29 03:32:01;;;;;;;8.25;3.42;;;9.30;99.90;;;;;;5054047;28;20477;-66
2022/09/29 03:34:27;;;;;;;6.70;3.67;;;9.30;99.90;;;;;;5053891;28;20095;-66
2022/09/29 03:36:52;;;;;;;6.17;2.73;;;9.40;99.90;;;;;;5054155;28;20029;-66
2022/09/29 03:39:18;;;;;;;5.30;2.60;;;9.30;99.90;;;;;;5036008;28;20024;-65
2022/09/29 03:41:43;;;;;;;6.70;2.60;;;9.30;99.90;;;;;;5053790;28;20025;-65
2022/09/29 03:44:09;;;;;;;6.87;2.73;;;9.30;99.90;;;;;;5035837;28;20429;-65
2022/09/29 03:46:35;;;;;;;5.20;3.00;;;9.30;99.90;;;;;;5053829;28;20482;-65
2022/09/29 03:49:00;;;;;;;5.67;3.20;;;9.30;99.90;;;;;;5053682;28;20020;-66
2022/09/29 03:51:26;;;;;;;5.27;2.70;;;9.30;99.90;;;;;;5053647;28;20021;-66
2022/09/29 03:53:52;;;;;;;5.13;3.00;;;9.30;99.90;;;;;;5053797;28;20107;-66
2022/09/29 03:56:18;;;;;;;;;;;9.30;99.90;;;;;;5053951;28;20029;-65
2022/09/29 03:58:43;;;;;;;4.97;3.40;;;9.30;99.90;;;;;;5053703;28;19905;-65
2022/09/29 04:01:09;;;;;;;6.37;3.60;;;9.30;99.90;;;;;;5053352;28;20041;-66
2022/09/29 04:03:34;;;;;;;5.30;3.30;;;9.30;99.90;;;;;;5053611;28;20390;-66
2022/09/29 04:06:00;;;;;;;7.30;4.17;;;9.20;99.90;;;;;;5053616;28;20055;-66
2022/09/29 04:08:25;;;;;;;6.97;3.72;;;9.20;99.90;;;;;;5035481;28;20025;-65
2022/09/29 04:10:51;;;;;;;9.60;3.50;;;9.20;99.90;;;;;;5053179;28;20504;-66
2022/09/29 04:13:17;;;;;;;8.30;3.53;;;9.20;99.90;;;;;;5053349;28;20028;-66
2022/09/29 04:15:42;;;;;;;8.50;4.03;;;9.20;99.90;;;;;;5035555;28;20025;-66
2022/09/29 04:18:08;;;;;;;5.87;4.00;;;9.10;99.90;;;;;;5053289;28;20025;-67
2022/09/29 04:20:33;;;;;;;6.40;3.67;;;9.00;99.90;;;;;;5075322;22;20072;-71
2022/09/29 04:23:00;;;;;;;5.83;3.33;;;9.00;99.90;;;;;;5052661;28;20040;-71
2022/09/29 04:25:26;;;;;;;9.63;3.58;;;8.90;99.90;;;;;;5052426;28;20017;-71
2022/09/29 04:27:52;;;;;;;5.90;3.33;;;8.80;99.90;;;;;;5052610;28;20025;-71
2022/09/29 04:30:18;;;;;;;7.03;3.70;;;8.70;99.90;;;;;;5052171;28;20388;-71
2022/09/29 04:32:43;;;;;;;7.70;3.23;;;8.80;99.90;;;;;;5053654;28;20393;-70
2022/09/29 04:35:09;;;;;;;5.83;3.13;;;8.90;99.90;;;;;;5052015;28;20252;-70
2022/09/29 04:37:35;;;;;;;9.07;3.72;;;9.10;99.90;;;;;;5053646;28;20025;-71
2022/09/29 04:40:02;;;;;;;13.20;3.53;;;9.30;99.90;;;;;;5052390;28;20021;-70
2022/09/29 04:42:27;;;;;;;13.88;3.90;;;9.30;99.90;;;;;;5052228;28;20028;-70
2022/09/29 04:44:53;;;;;;;4.50;3.33;;;9.30;99.90;;;;;;5053816;28;20021;-71
2022/09/29 04:47:19;;;;;;;7.17;3.77;;;9.20;99.90;;;;;;5053808;28;20032;-70
2022/09/29 04:49:44;;;;;;;8.83;3.63;;;9.20;99.90;;;;;;5051923;28;20048;-70
2022/09/29 04:52:13;;;;;;;8.87;4.10;;;9.20;99.90;;;;;;5051932;28;20035;-69
2022/09/29 04:54:39;;;;;;;8.57;3.85;;;9.20;99.90;;;;;;5053179;28;20028;-70
2022/09/29 04:57:05;;;;;;;7.00;4.13;;;9.30;99.90;;;;;;5051889;28;20514;-70
2022/09/29 04:59:31;;;;;;;7.03;3.65;;;9.30;99.90;;;;;;5053627;28;20025;-71
2022/09/29 05:01:57;;;;;;;5.88;3.30;;;9.30;99.90;;;;;;5051935;28;20408;-68
2022/09/29 05:04:23;;;;;;;6.43;3.97;;;9.30;99.90;;;;;;5051908;28;20061;-69
2022/09/29 05:06:48;;;;;;;6.40;3.60;;;9.30;99.90;;;;;;5053157;28;20055;-69
2022/09/29 05:09:14;;;;;;;5.90;3.90;;;9.30;99.90;;;;;;5051934;28;20260;-69
2022/09/29 05:11:39;;;;;;;7.47;3.93;;;9.20;99.90;;;;;;5053279;28;20032;-69
2022/09/29 05:14:05;;;;;;;8.10;4.50;;;9.30;99.90;;;;;;5051830;28;20485;-69
2022/09/29 05:16:31;;;;;;;7.07;3.90;;;9.30;99.90;;;;;;5055177;28;20029;-69
2022/09/29 05:18:57;;;;;;;10.55;4.22;;;9.30;99.90;;;;;;5055774;28;20068;-68
2022/09/29 05:21:22;;;;;;;9.40;4.00;;;9.40;99.90;;;;;;5055717;28;20029;-68
2022/09/29 05:23:48;;;;;;;6.57;3.75;;;9.40;99.90;;;;;;5054748;28;20108;-68
2022/09/29 05:26:14;;;;;;;6.43;3.87;;;9.30;99.90;;;;;;5051769;28;20021;-69
2022/09/29 05:28:44;;;;;;;7.17;3.33;;;9.30;99.90;;;;;;5051653;28;20025;-69
2022/09/29 05:31:09;;;;;;;9.68;3.90;;;9.30;99.90;;;;;;5052999;28;20390;-68
2022/09/29 05:33:36;;;;;;;10.20;3.97;;;9.30;99.90;;;;;;5056470;28;20040;-69
2022/09/29 05:36:06;;;;;;;7.05;3.50;;;9.30;99.90;;;;;;5056437;28;20033;-70
2022/09/29 05:38:31;;;;;;;7.20;3.83;;;9.40;99.90;;;;;;5057104;28;20036;-69
2022/09/29 05:40:57;;;;;;;5.50;2.85;;;9.40;99.90;;;;;;5056923;28;20029;-68
2022/09/29 05:43:24;;;;;;;7.30;3.85;;;9.50;99.90;;;;;;5055229;28;20048;-68
2022/09/29 05:45:49;;;;;;;;;;;9.50;99.90;;;;;;5056970;28;20017;-70
2022/09/29 05:48:16;;;;;;;10.55;3.63;;;9.50;99.90;;;;;;5056223;28;19904;-69
2022/09/29 05:50:42;;;;;;;7.47;3.60;;;9.50;99.90;;;;;;5056320;28;20032;-69
2022/09/29 05:53:08;;;;;;;7.07;4.28;;;9.40;99.90;;;;;;5054597;28;20025;-69
2022/09/29 05:55:37;;;;;;;8.82;3.72;;;9.40;99.90;;;;;;5056121;28;20028;-69
2022/09/29 05:58:05;;;;;;;5.18;3.13;;;9.50;99.90;;;;;;5054832;28;20033;-69
2022/09/29 06:00:32;;;;;;;5.97;3.95;;;9.70;99.90;;;;;;5055966;28;20111;-69
2022/09/29 06:02:59;;;;;;;5.72;3.55;;;9.80;99.90;;;;;;5056090;28;20029;-69
2022/09/29 06:05:24;;;;;;;8.10;4.00;;;9.80;99.90;;;;;;5055153;28;20025;-68
2022/09/29 06:07:51;;;;;;;6.82;3.70;;;9.80;99.90;;;;;;5056376;28;20024;-68
2022/09/29 06:10:17;;;;;;;6.82;3.67;;;9.80;99.90;;;;;;5055958;28;20029;-69
2022/09/29 06:12:43;;;;;;;10.87;4.00;;;9.80;99.90;;;;;;5055854;28;20432;-69
2022/09/29 06:15:09;;;;;;;;;;;9.80;99.90;;;;;;5056256;28;20211;-70
2022/09/29 06:17:35;;;;;;;8.32;4.47;;;9.70;99.90;;;;;;5054929;28;20432;-70
2022/09/29 06:20:01;;;;;;;11.63;4.63;;;9.70;99.90;;;;;;5055176;28;20071;-70
2022/09/29 06:22:27;;;;;;;;;;;9.70;99.90;;;;;;5054649;28;20111;-70
2022/09/29 06:24:53;;;;;;;11.38;4.35;;;9.80;99.90;;;;;;5054436;28;20053;-70
2022/09/29 06:27:19;;;;;;;9.65;4.70;;;9.90;99.90;;;;;;5056435;28;20024;-70
2022/09/29 06:29:45;;;;;;;8.93;4.80;;;10.10;99.90;;;;;;5055595;28;20370;-70
2022/09/29 06:32:10;;;;;;;8.20;4.00;;;10.10;99.90;;;;;;5056668;28;20146;-70
2022/09/29 06:37:33;;;;;;;7.67;3.83;;;10.10;99.90;;;;;;5054594;28;20366;-71
2022/09/29 06:37:38;;;;;;;10.23;3.90;;;10.10;99.90;;;;;;5056003;28;20021;-69
2022/09/29 06:40:07;;;;;;;7.57;3.95;;;10.20;99.90;;;;;;5054133;28;20025;-68
2022/09/29 06:42:33;;;;;;;8.77;4.25;;;10.20;99.90;;;;;;5053647;28;20036;-70
2022/09/29 06:44:58;;;;;;;4.68;3.38;;;10.30;99.90;;;;;;5055264;28;20021;-70
2022/09/29 06:47:24;;;;;;;7.73;4.13;;;10.30;99.90;;;;;;5055366;28;20035;-70
2022/09/29 06:49:49;;;;;;;5.73;3.97;;;10.30;99.90;;;;;;5053874;28;20029;-70
2022/09/29 06:52:16;;;;;;;11.37;3.63;;;10.30;99.90;;;;;;5055432;28;20031;-70
2022/09/29 06:54:41;;;;;;;;;;;10.40;99.90;;;;;;5056048;28;20029;-70
2022/09/29 06:57:08;;;;;;;13.45;6.18;;;10.50;99.90;;;;;;5054346;28;19905;-69
2022/09/29 06:59:33;;;;;;;9.52;4.13;;;10.60;99.90;;;;;;5055707;28;20199;-68
2022/09/29 07:01:59;;;;;;;13.70;5.60;;;10.70;99.90;;;;;;5056356;28;20064;-69
2022/09/29 07:04:25;;;;;;;6.77;4.33;;;10.80;99.90;;;;;;5056075;28;20021;-70
2022/09/29 07:06:50;;;;;;;6.55;3.92;;;10.80;99.90;;;;;;5055935;28;20062;-70
2022/09/29 07:09:17;;;;;;;11.73;5.38;;;10.80;99.90;;;;;;5054468;28;20032;-69
2022/09/29 07:11:45;;;;;;;10.80;5.07;;;10.80;99.90;;;;;;5053590;28;20474;-70
2022/09/29 07:14:12;;;;;;;8.10;4.20;;;10.80;99.90;;;;;;5053556;28;20489;-70
2022/09/29 07:16:38;;;;;;;6.15;4.75;;;10.90;99.90;;;;;;5054736;28;20033;-70
2022/09/29 07:19:03;;;;;;;6.63;4.37;;;10.80;99.90;;;;;;5054976;28;20393;-70
2022/09/29 07:21:29;;;;;;;7.73;4.20;;;10.80;99.90;;;;;;5053172;28;20420;-70
2022/09/29 07:23:54;;;;;;;6.40;3.97;;;10.90;99.90;;;;;;5053169;28;20078;-70
2022/09/29 07:26:21;;;;;;;9.70;4.63;;;11.30;99.90;;;;;;5054555;28;20504;-70
2022/09/29 07:28:46;;;;;;;;;;;11.40;99.90;;;;;;5054712;28;20179;-70
2022/09/29 07:31:16;;;;;;;8.18;4.30;;;11.40;99.90;;;;;;5054286;28;19966;-70
2022/09/29 07:33:43;;;;;;;11.48;4.95;;;11.40;99.90;;;;;;5053279;28;20025;-70
2022/09/29 07:36:09;;;;;;;10.65;4.65;;;11.40;99.90;;;;;;5054089;28;20032;-70
2022/09/29 07:38:34;;;;;;;7.90;4.70;;;11.20;99.90;;;;;;5053074;28;20024;-70
2022/09/29 07:41:01;;;;;;;9.87;5.00;;;11.30;99.90;;;;;;5054054;28;20771;-70
2022/09/29 07:43:27;;;;;;;10.35;4.97;;;11.50;99.90;;;;;;5052799;28;20055;-70
2022/09/29 07:45:52;;;;;;;8.37;4.57;;;11.70;99.90;;;;;;5052920;28;20431;-69
2022/09/29 07:48:18;;;;;;;12.93;4.17;;;11.90;99.90;;;;;;5054217;28;20036;-69
2022/09/29 07:50:45;;;;;;;7.70;4.27;;;12.10;99.90;;;;;;5052830;28;20102;-69
2022/09/29 07:53:11;;;;;;;8.35;4.95;;;12.20;99.90;;;;;;5052926;28;20040;-70
2022/09/29 07:55:37;;;;;;;7.10;4.18;;;12.30;99.90;;;;;;5052379;28;20029;-69
2022/09/29 07:58:04;;;;;;;8.48;4.43;;;12.20;99.90;;;;;;5056253;28;20106;-70
2022/09/29 08:00:30;;;;;;;9.23;3.92;;;12.40;99.90;;;;;;5058676;28;20032;-69
2022/09/29 08:03:08;;;;;;;10.07;4.15;;;12.70;99.90;;;;;;5059317;28;20523;-70
2022/09/29 08:05:34;;;;;;;7.20;4.03;;;12.60;99.90;;;;;;5057649;28;20511;-71
2022/09/29 08:08:01;;;;;;;13.77;4.45;;;12.70;99.90;;;;;;5054622;28;20385;-69
2022/09/29 08:10:28;;;;;;;7.57;4.00;;;12.90;99.90;;;;;;5052317;28;20060;-69
2022/09/29 08:12:54;;;;;;;9.35;4.45;;;13.00;99.90;;;;;;5053678;28;20078;-70
2022/09/29 08:15:20;;;;;;;;;;;13.10;99.90;;;;;;5052749;28;20652;-70
2022/09/29 08:17:46;;;;;;;5.68;3.30;;;13.30;99.90;;;;;;5052473;28;19968;-70
2022/09/29 08:20:12;;;;;;;6.83;3.97;;;13.50;99.90;;;;;;5053803;28;20060;-69
2022/09/29 08:22:37;;;;;;;5.53;3.65;;;13.50;99.90;;;;;;5053863;28;20039;-69
2022/09/29 08:25:03;;;;;;;10.50;4.47;;;13.20;99.90;;;;;;5053664;28;20475;-69
2022/09/29 08:27:29;;;;;;;7.13;4.15;;;12.50;99.90;;;;;;5053619;28;20278;-70
2022/09/29 08:29:55;;;;;;;6.77;4.10;;;12.30;99.90;;;;;;5053392;28;20107;-70
2022/09/29 08:32:21;;;;;;;7.72;4.47;;;12.10;99.90;;;;;;5053391;28;20263;-70
2022/09/29 08:34:47;;;;;;;8.05;3.83;;;12.60;99.90;;;;;;5052092;28;20029;-70
2022/09/29 08:37:12;;;;;;;6.63;4.17;;;13.00;99.90;;;;;;5053319;28;20048;-70
2022/09/29 08:39:38;;;;;;;7.60;4.03;;;13.50;99.90;;;;;;5053258;28;20025;-70
2022/09/29 08:42:29;;;;;;;7.03;4.70;;;13.80;99.90;;;;;;5051904;28;20025;-70
2022/09/29 08:45:02;;;;;;;6.55;4.30;;;14.20;99.90;;;;;;5053346;28;20029;-70
2022/09/29 08:47:34;;;;;;;7.10;4.03;;;13.80;99.90;;;;;;5053212;28;20028;-70
2022/09/29 08:50:12;;;;;;;8.05;4.07;;;13.80;99.90;;;;;;5052845;28;20025;-70
2022/09/29 08:52:43;;;;;;;7.20;4.07;;;14.30;99.90;;;;;;5052279;28;20025;-69
2022/09/29 08:55:12;;;;;;;7.78;4.15;;;14.00;99.90;;;;;;5054004;28;20474;-69
2022/09/29 08:57:38;;;;;;;8.70;4.13;;;14.40;99.90;;;;;;5053751;28;20016;-70
2022/09/29 09:00:09;;;;;;;10.35;4.20;;;14.60;99.90;;;;;;5053950;28;20504;-69
2022/09/29 09:03:02;;;;;;;6.18;4.30;;;14.50;99.90;;;;;;5053096;28;20417;-69
2022/09/29 09:05:55;;;;;;;6.85;4.38;;;14.70;99.90;;;;;;5054158;28;20107;-69
2022/09/29 09:08:36;;;;;;;8.07;5.20;;;15.80;99.90;;;;;;5057770;28;20024;-69
2022/09/29 09:11:40;;;;;;;9.70;4.07;;;17.70;99.90;;;;;;5057481;28;20029;-70
2022/09/29 09:14:28;;;;;;;8.32;4.30;;;18.80;99.90;;;;;;5058174;28;20032;-70
2022/09/29 09:17:14;;;;;;;5.53;4.32;;;19.40;99.90;;;;;;5057745;28;20045;-71
2022/09/29 09:19:45;;;;;;;6.80;3.88;;;19.20;99.90;;;;;;5058863;28;20032;-70
2022/09/29 09:22:23;;;;;;;10.35;5.35;;;17.70;99.90;;;;;;5058722;28;20512;-71
2022/09/29 09:25:06;;;;;;;9.40;6.30;;;17.50;99.90;;;;;;5057273;28;20090;-70
2022/09/29 09:27:45;;;;;;;11.15;6.20;;;17.40;99.90;;;;;;5057444;28;20031;-71
2022/09/29 09:30:29;;;;;;;8.20;6.80;;;16.90;99.90;;;;;;5058083;28;20158;-70
2022/09/29 09:33:03;;;;;;;14.18;7.03;;;15.80;99.90;;;;;;5056701;28;20386;-70
2022/09/29 09:35:40;;;;;;;10.65;6.43;;;15.50;99.90;;;;;;5059261;28;20382;-71
2022/09/29 09:38:14;;;;;;;10.80;6.75;;;15.20;99.90;;;;;;5056319;28;20033;-70
2022/09/29 09:40:44;;;;;;;8.05;5.68;;;15.10;99.90;;;;;;5057463;28;20051;-71
2022/09/29 09:43:18;;;;;;;12.75;6.13;;;15.20;99.90;;;;;;5055669;28;20056;-70
2022/09/29 09:46:02;;;;;;;11.55;7.75;;;15.30;99.90;;;;;;5055755;28;20036;-70
2022/09/29 09:48:31;;;;;;;11.65;8.32;;;15.40;99.90;;;;;;5055938;28;20075;-70
2022/09/29 09:51:00;;;;;;;12.05;7.72;;;15.80;99.90;;;;;;5057223;28;20025;-70
2022/09/29 09:53:36;;;;;;;10.13;7.15;;;16.00;99.90;;;;;;5055278;28;20025;-70
2022/09/29 09:56:43;;;;;;;13.67;7.00;;;16.50;99.90;;;;;;5056505;28;20477;-70
2022/09/29 09:59:50;;;;;;;8.65;5.72;;;18.10;99.90;;;;;;5034794;28;20029;-70
2022/09/29 10:02:21;;;;;;;10.60;6.07;;;17.90;99.90;;;;;;5012333;28;20033;-71
2022/09/29 10:04:51;;;;;;;9.88;5.80;;;18.00;99.90;;;;;;5038830;28;20061;-70
2022/09/29 10:07:21;;;;;;;10.70;5.55;;;17.90;99.90;;;;;;5034588;28;20045;-70
2022/09/29 10:09:47;;;;;;;8.63;5.40;;;17.70;99.90;;;;;;5034332;28;20045;-70
2022/09/29 10:12:23;;;;;;;7.47;5.43;;;17.40;99.90;;;;;;5034604;28;20033;-70
2022/09/29 10:14:59;;;;;;;8.93;5.30;;;17.10;99.90;;;;;;5034565;28;20464;-70
2022/09/29 10:17:32;;;;;;;10.80;5.35;;;16.60;99.90;;;;;;5017303;28;20172;-70
2022/09/29 10:20:00;;;;;;;10.85;6.50;;;16.20;99.90;;;;;;5034105;28;20037;-69
2022/09/29 10:22:28;;;;;;;8.60;4.80;;;16.50;99.90;;;;;;5018654;28;20033;-67
2022/09/29 10:25:07;;;;;;;8.40;5.68;;;16.70;99.90;;;;;;5035749;28;20550;-67
2022/09/29 10:27:34;;;;;;;5.50;4.45;;;17.30;99.90;;;;;;5019863;28;20048;-68
2022/09/29 10:30:02;;;;;;;6.75;4.30;;;17.30;99.90;;;;;;5039293;28;20029;-66
2022/09/29 10:32:35;;;;;;;8.27;4.72;;;17.20;99.90;;;;;;5057629;28;20477;-66
2022/09/29 10:35:16;;;;;;;8.35;4.90;;;18.30;99.90;;;;;;5058115;28;20032;-67
2022/09/29 10:37:46;;;;;;;7.10;4.18;;;20.10;99.90;;;;;;5057964;28;20056;-67
2022/09/29 10:40:20;;;;;;;6.53;3.90;;;19.50;99.90;;;;;;5058974;28;20093;-67
2022/09/29 10:42:49;;;;;;;6.35;4.18;;;19.10;99.90;;;;;;5058809;28;20029;-67
2022/09/29 10:45:21;;;;;;;6.32;3.50;;;18.80;99.90;;;;;;5059482;28;20543;-67
2022/09/29 10:47:59;;;;;;;6.03;3.60;;;18.90;99.90;;;;;;5059074;28;20023;-67
2022/09/29 10:50:26;;;;;;;5.15;3.28;;;21.40;99.30;;;;;;5056817;28;21387;-67
2022/09/29 10:52:55;;;;;;;6.10;3.65;;;22.90;97.30;;;;;;5056218;28;20044;-67
2022/09/29 10:55:25;;;;;;;7.60;3.70;;;23.00;95.90;;;;;;5057675;28;20071;-68
2022/09/29 10:57:53;;;;;;;6.78;3.80;;;22.40;95.70;;;;;;5056424;28;20021;-67
2022/09/29 11:00:26;;;;;;;4.07;3.05;;;20.60;97.30;;;;;;5057295;28;20032;-67
2022/09/29 11:02:58;;;;;;;7.05;3.30;;;19.90;97.50;;;;;;5057271;28;20017;-67
2022/09/29 11:05:24;;;;;;;7.10;3.78;;;19.30;98.80;;;;;;5056323;28;20021;-67
2022/09/29 11:07:51;;;;;;;6.30;3.88;;;19.00;99.90;;;;;;5055671;28;20029;-67
2022/09/29 11:10:37;;;;;;;6.43;4.43;;;18.70;99.90;;;;;;5056549;28;20028;-68
2022/09/29 11:13:29;;;;;;;7.80;4.47;;;18.30;99.90;;;;;;5055714;28;20470;-68
2022/09/29 11:16:03;;;;;;;7.13;3.95;;;18.20;99.90;;;;;;5050894;28;20033;-66
2022/09/29 11:18:37;;;;;;;6.35;4.07;;;17.30;99.90;;;;;;5056914;28;20021;-66
2022/09/29 11:21:24;;;;;;;7.68;4.10;;;17.20;99.90;;;;;;5056272;28;20037;-67
2022/09/29 11:24:18;;;;;;;8.02;4.22;;;16.70;99.90;;;;;;5056212;28;20016;-67
2022/09/29 11:27:04;;;;;;;7.20;4.35;;;16.50;99.90;;;;;;5055671;28;20386;-67
2022/09/29 11:29:53;;;;;;;8.07;4.60;;;16.60;99.90;;;;;;5056068;28;20033;-67
2022/09/29 11:32:30;;;;;;;8.07;4.70;;;16.60;99.90;;;;;;5054591;28;20078;-68
2022/09/29 11:35:15;;;;;;;6.97;3.95;;;16.30;99.90;;;;;;5054325;28;20036;-67
2022/09/29 11:37:52;;;;;;;6.40;3.97;;;16.30;99.90;;;;;;5055372;28;20021;-67
2022/09/29 11:40:41;;;;;;;7.07;4.47;;;16.30;99.90;;;;;;5054328;28;20025;-67
2022/09/29 11:43:25;;;;;;;8.32;4.05;;;16.20;99.90;;;;;;5054650;28;20052;-67
2022/09/29 11:46:14;;;;;;;6.47;3.97;;;16.00;99.90;;;;;;5054967;28;20079;-67
2022/09/29 11:48:53;;;;;;;9.23;4.43;;;16.00;99.90;;;;;;5056069;28;20084;-67
2022/09/29 11:51:49;;;;;;;6.95;4.15;;;16.00;99.90;;;;;;5056025;28;20108;-67
2022/09/29 11:54:27;;;;;;;7.32;4.28;;;16.20;99.90;;;;;;5055655;28;20051;-67
2022/09/29 11:57:17;;;;;;;8.95;4.32;;;16.30;99.90;;;;;;5056906;28;20457;-68
2022/09/29 12:00:07;;;;;;;5.80;4.28;;;16.10;99.90;;;;;;5057140;28;20053;-72
2022/09/29 12:03:14;;;;;;;9.38;4.25;;;16.30;99.90;;;;;;5058549;28;20021;-70
2022/09/29 12:05:55;;;;;;;5.97;4.05;;;16.40;99.90;;;;;;5018401;28;20096;-70
2022/09/29 12:08:41;;;;;;;7.03;5.18;;;16.40;99.90;;;;;;5016954;28;20033;-71
2022/09/29 12:11:23;;;;;;;8.50;4.90;;;16.10;99.90;;;;;;5035224;28;20053;-72
2022/09/29 12:13:49;;;;;;;7.57;4.60;;;16.00;99.90;;;;;;5019316;28;20034;-72
2022/09/29 12:16:19;;;;;;;6.17;4.20;;;16.00;99.90;;;;;;5020441;28;20363;-70
2022/09/29 12:19:06;;;;;;;6.40;4.30;;;16.10;99.90;;;;;;5023501;28;20461;-72
2022/09/29 12:21:36;;;;;;;9.02;4.72;;;16.00;99.90;;;;;;5022844;28;20072;-72
2022/09/29 12:24:06;;;;;;;6.30;4.35;;;16.20;99.90;;;;;;5042820;28;20018;-73
2022/09/29 12:26:33;;;;;;;7.60;4.50;;;16.30;99.90;;;;;;5025489;28;20215;-69
2022/09/29 12:29:10;;;;;;;7.60;4.20;;;16.30;99.90;;;;;;5021223;28;20033;-70
2022/09/29 12:31:44;;;;;;;7.57;3.90;;;16.20;99.90;;;;;;5036898;28;20125;-71
2022/09/29 12:34:21;;;;;;;5.97;4.25;;;16.20;99.90;;;;;;5018210;28;20041;-71
2022/09/29 12:37:02;;;;;;;8.32;4.13;;;16.20;99.90;;;;;;5016425;28;20037;-70
2022/09/29 12:39:42;;;;;;;7.32;4.72;;;16.30;99.90;;;;;;5031841;28;20026;-73
2022/09/29 12:42:31;;;;;;;8.57;4.43;;;16.10;99.90;;;;;;5052288;28;20033;-72
2022/09/29 12:45:05;;;;;;;6.80;4.20;;;16.10;99.90;;;;;;5053923;28;20056;-71
2022/09/29 12:48:00;;;;;;;9.00;4.35;;;16.10;99.90;;;;;;5054397;28;20025;-71
2022/09/29 12:50:37;;;;;;;8.60;4.78;;;16.10;99.90;;;;;;5054039;28;20040;-70
2022/09/29 12:53:20;;;;;;;7.32;3.35;;;15.90;99.90;;;;;;5055000;28;20086;-70
2022/09/29 12:56:05;;;;;;;8.43;4.07;;;15.80;99.90;;;;;;5055091;28;20024;-70
2022/09/29 12:58:38;;;;;;;5.80;3.17;;;15.90;99.90;;;;;;5054442;28;20025;-71
2022/09/29 13:01:27;;;;;;;7.47;3.22;;;15.90;99.90;;;;;;5054169;28;20040;-70
2022/09/29 13:04:11;;;;;;;6.57;3.47;;;15.80;99.90;;;;;;5054807;28;20027;-72
2022/09/29 13:07:17;;;;;;;6.43;3.17;;;15.90;99.90;;;;;;5053875;28;20025;-71
2022/09/29 13:10:04;;;;;;;5.53;3.05;;;16.00;99.90;;;;;;5054898;28;20378;-72
2022/09/29 13:13:06;;;;;;;6.05;2.67;;;16.00;99.90;;;;;;5053695;28;20102;-70
2022/09/29 13:15:41;;;;;;;5.32;2.45;;;16.10;99.90;;;;;;5054034;28;20029;-71
2022/09/29 13:18:28;;;;;;;4.60;2.47;;;16.10;99.90;;;;;;5052762;28;20029;-71